createdAt,value
2019-01-18T00:00:52.829Z,28.20
2019-01-18T00:03:20.519Z,28.20
2019-01-18T00:05:48.173Z,28.20
2019-01-18T00:08:15.807Z,28.20
2019-01-18T00:10:46.510Z,28.20
2019-01-18T00:13:14.119Z,28.20
2019-01-18T00:15:41.772Z,28.20
2019-01-18T00:18:09.417Z,28.70
2019-01-18T00:20:37.037Z,28.20
2019-01-18T00:23:04.758Z,28.20
2019-01-18T00:25:32.416Z,28.20
2019-01-18T00:28:00.011Z,28.20
2019-01-18T00:30:27.660Z,28.20
2019-01-18T00:32:55.237Z,28.20
2019-01-18T00:35:22.844Z,28.20
2019-01-18T00:37:50.490Z,28.20
2019-01-18T00:40:18.882Z,28.30
2019-01-18T00:42:46.588Z,28.20
2019-01-18T00:45:15.839Z,28.60
2019-01-18T00:47:43.448Z,28.70
2019-01-18T00:50:12.816Z,28.90
2019-01-18T00:52:40.470Z,28.80
2019-01-18T00:55:08.458Z,29.00
2019-01-18T00:57:36.246Z,28.90
2019-01-18T01:00:11.526Z,28.90
2019-01-18T01:02:39.164Z,28.90
2019-01-18T01:05:06.785Z,28.70
2019-01-18T01:07:34.472Z,28.80
2019-01-18T01:10:02.118Z,28.80
2019-01-18T01:12:29.723Z,28.90
2019-01-18T01:14:57.370Z,28.60
2019-01-18T01:17:24.980Z,28.70
2019-01-18T01:19:52.578Z,28.70
2019-01-18T01:22:20.315Z,28.70
2019-01-18T01:24:47.974Z,28.60
2019-01-18T01:27:15.646Z,28.70
2019-01-18T01:29:43.349Z,28.60
2019-01-18T01:32:11.032Z,28.50
2019-01-18T01:34:38.768Z,28.30
2019-01-18T01:37:06.354Z,28.20
2019-01-18T01:39:33.930Z,28.20
2019-01-18T01:42:01.578Z,28.20
2019-01-18T01:44:29.165Z,28.20
2019-01-18T01:46:56.764Z,28.20
2019-01-18T01:49:24.515Z,28.20
2019-01-18T01:51:52.270Z,28.30
2019-01-18T01:54:19.872Z,28.30
2019-01-18T01:56:47.490Z,28.50
2019-01-18T01:59:15.140Z,28.40
2019-01-18T02:01:42.878Z,28.30
2019-01-18T02:04:10.538Z,28.30
2019-01-18T02:06:38.116Z,28.30
2019-01-18T02:09:05.804Z,28.20
2019-01-18T02:11:33.408Z,28.20
2019-01-18T02:14:01.024Z,28.60
2019-01-18T02:16:28.756Z,28.20
2019-01-18T02:18:56.330Z,28.30
2019-01-18T02:21:23.952Z,28.20
2019-01-18T02:23:51.684Z,28.20
2019-01-18T02:26:19.344Z,28.20
2019-01-18T02:28:46.940Z,28.20
2019-01-18T02:31:14.623Z,28.20
2019-01-18T02:33:42.277Z,28.20
2019-01-18T02:36:09.888Z,28.20
2019-01-18T02:38:37.476Z,28.20
2019-01-18T02:41:05.203Z,28.20
2019-01-18T02:43:39.011Z,28.20
2019-01-18T02:46:06.650Z,28.20
2019-01-18T02:48:34.344Z,28.20
2019-01-18T02:51:01.959Z,28.20
2019-01-18T02:53:29.586Z,28.20
2019-01-18T02:55:57.318Z,28.20
2019-01-18T02:58:24.923Z,28.20
2019-01-18T03:00:52.522Z,28.10
2019-01-18T03:03:20.163Z,28.10
2019-01-18T03:05:47.798Z,28.20
2019-01-18T03:08:15.493Z,28.20
2019-01-18T03:10:43.150Z,28.20
2019-01-18T03:13:10.794Z,28.20
2019-01-18T03:15:38.437Z,28.20
2019-01-18T03:18:06.017Z,28.10
2019-01-18T03:20:33.642Z,28.20
2019-01-18T03:23:01.382Z,28.10
2019-01-18T03:25:29.050Z,28.10
2019-01-18T03:27:56.636Z,28.10
2019-01-18T03:30:24.279Z,28.10
2019-01-18T03:32:51.900Z,28.10
2019-01-18T03:35:20.526Z,28.10
2019-01-18T03:37:48.185Z,28.10
2019-01-18T03:40:16.386Z,28.10
2019-01-18T03:42:44.073Z,28.10
2019-01-18T03:45:12.709Z,28.10
2019-01-18T03:47:40.369Z,28.60
2019-01-18T03:50:09.709Z,28.10
2019-01-18T03:52:37.361Z,28.10
2019-01-18T03:55:05.739Z,28.10
2019-01-18T03:57:33.325Z,28.10
2019-01-18T04:00:00.970Z,28.10
2019-01-18T04:02:28.709Z,28.10
2019-01-18T04:04:56.304Z,28.10
2019-01-18T04:07:23.899Z,28.10
2019-01-18T04:09:51.548Z,28.10
2019-01-18T04:12:19.279Z,28.10
2019-01-18T04:14:46.963Z,28.10
2019-01-18T04:17:14.607Z,28.10
2019-01-18T04:19:42.196Z,28.10
2019-01-18T04:22:09.799Z,28.10
2019-01-18T04:24:37.462Z,28.10
2019-01-18T04:27:05.155Z,28.10
2019-01-18T04:29:32.734Z,28.10
2019-01-18T04:32:00.432Z,28.10
2019-01-18T04:34:28.173Z,28.10
2019-01-18T04:36:55.822Z,28.10
2019-01-18T04:39:23.409Z,28.10
2019-01-18T04:41:51.107Z,28.10
2019-01-18T04:44:18.785Z,28.10
2019-01-18T04:46:46.387Z,28.10
2019-01-18T04:49:14.011Z,28.10
2019-01-18T04:51:41.598Z,28.10
2019-01-18T04:54:09.255Z,28.10
2019-01-18T04:56:36.897Z,28.10
2019-01-18T04:59:04.498Z,28.10
2019-01-18T05:01:32.098Z,28.10
2019-01-18T05:03:59.744Z,28.10
2019-01-18T05:06:27.385Z,28.10
2019-01-18T05:08:55.054Z,28.10
2019-01-18T05:11:22.661Z,28.10
2019-01-18T05:13:50.254Z,28.10
2019-01-18T05:16:17.918Z,28.10
2019-01-18T05:18:45.513Z,28.10
2019-01-18T05:21:13.101Z,28.10
2019-01-18T05:23:40.805Z,28.10
2019-01-18T05:26:08.387Z,28.10
2019-01-18T05:28:36.045Z,28.10
2019-01-18T05:31:03.671Z,28.10
2019-01-18T05:33:31.377Z,28.10
2019-01-18T05:35:59.062Z,28.10
2019-01-18T05:38:26.785Z,28.10
2019-01-18T05:40:54.395Z,28.10
2019-01-18T05:43:21.989Z,28.10
2019-01-18T05:45:49.674Z,28.10
2019-01-18T05:48:17.332Z,28.10
2019-01-18T05:50:44.949Z,28.10
2019-01-18T05:53:13.029Z,28.10
2019-01-18T05:55:40.650Z,28.10
2019-01-18T05:58:08.284Z,28.10
2019-01-18T06:00:37.513Z,28.10
2019-01-18T06:03:05.175Z,28.10
2019-01-18T06:05:34.484Z,28.10
2019-01-18T06:08:02.125Z,28.10
2019-01-18T06:10:29.719Z,28.10
2019-01-18T06:12:57.375Z,28.10
2019-01-18T06:15:25.025Z,28.10
2019-01-18T06:17:52.846Z,28.10
2019-01-18T06:20:20.540Z,28.20
2019-01-18T06:22:48.247Z,28.40
2019-01-18T06:25:15.863Z,28.50
2019-01-18T06:27:43.537Z,28.70
2019-01-18T06:30:16.344Z,28.80
2019-01-18T06:32:44.025Z,29.00
2019-01-18T06:35:11.724Z,29.20
2019-01-18T06:37:39.379Z,29.20
2019-01-18T06:40:08.654Z,29.50
2019-01-18T06:42:36.337Z,29.50
2019-01-18T06:45:05.512Z,29.40
2019-01-18T06:47:33.216Z,29.50
2019-01-18T06:50:00.850Z,29.40
2019-01-18T06:52:28.527Z,29.40
2019-01-18T06:54:56.164Z,29.40
2019-01-18T06:57:23.773Z,29.50
2019-01-18T06:59:51.376Z,29.00
2019-01-18T07:02:19.058Z,28.70
2019-01-18T07:04:46.697Z,28.10
2019-01-18T07:07:15.869Z,28.10
2019-01-18T07:09:43.910Z,28.10
2019-01-18T07:12:11.566Z,28.10
2019-01-18T07:14:39.159Z,29.60
2019-01-18T07:17:06.876Z,28.10
2019-01-18T07:19:34.528Z,28.80
2019-01-18T07:22:02.110Z,28.90
2019-01-18T07:24:29.761Z,28.90
2019-01-18T07:26:57.362Z,28.90
2019-01-18T07:29:24.958Z,29.00
2019-01-18T07:31:52.598Z,28.60
2019-01-18T07:34:20.202Z,28.50
2019-01-18T07:36:47.783Z,28.50
2019-01-18T07:39:15.452Z,29.00
2019-01-18T07:41:43.125Z,28.80
2019-01-18T07:44:10.738Z,28.10
2019-01-18T07:46:38.456Z,28.10
2019-01-18T07:49:06.049Z,28.10
2019-01-18T07:51:33.654Z,28.00
2019-01-18T07:54:01.332Z,27.90
2019-01-18T07:56:28.936Z,28.00
2019-01-18T07:58:56.600Z,27.90
2019-01-18T08:01:24.221Z,28.00
2019-01-18T08:03:51.824Z,28.00
2019-01-18T08:06:19.491Z,27.90
2019-01-18T08:08:47.183Z,28.00
2019-01-18T08:11:14.880Z,28.00
2019-01-18T08:13:42.563Z,28.00
2019-01-18T08:16:10.149Z,28.00
2019-01-18T08:18:37.830Z,28.00
2019-01-18T08:21:05.536Z,28.00
2019-01-18T08:23:33.144Z,28.10
2019-01-18T08:26:00.800Z,28.10
2019-01-18T08:28:28.376Z,28.10
2019-01-18T08:30:56.052Z,28.10
2019-01-18T08:33:23.720Z,28.10
2019-01-18T08:35:51.350Z,28.00
2019-01-18T08:38:19.010Z,28.00
2019-01-18T08:40:46.959Z,28.10
2019-01-18T08:43:15.203Z,28.10
2019-01-18T08:45:44.091Z,28.00
2019-01-18T08:48:11.727Z,28.10
2019-01-18T08:50:39.774Z,28.10
2019-01-18T08:53:07.484Z,28.10
2019-01-18T08:55:35.128Z,28.10
2019-01-18T08:58:02.732Z,28.00
2019-01-18T09:00:31.096Z,28.10
2019-01-18T09:02:58.728Z,28.10
2019-01-18T09:05:26.774Z,28.10
2019-01-18T09:07:55.286Z,28.10
2019-01-18T09:10:24.380Z,28.00
2019-01-18T09:12:52.043Z,28.10
2019-01-18T09:15:19.643Z,28.10
2019-01-18T09:17:47.255Z,28.10
2019-01-18T09:20:16.227Z,28.10
2019-01-18T09:22:43.822Z,28.10
2019-01-18T09:25:11.442Z,28.10
2019-01-18T09:27:39.172Z,28.10
2019-01-18T09:30:11.611Z,28.10
2019-01-18T09:32:39.216Z,28.10
2019-01-18T09:35:08.275Z,28.10
2019-01-18T09:37:35.967Z,28.10
2019-01-18T09:40:05.246Z,28.20
2019-01-18T09:42:32.904Z,28.20
2019-01-18T09:45:00.545Z,28.20
2019-01-18T09:47:28.238Z,28.20
2019-01-18T09:49:55.884Z,28.20
2019-01-18T09:52:23.585Z,28.20
2019-01-18T09:54:51.214Z,28.20
2019-01-18T09:57:18.924Z,28.20
2019-01-18T09:59:46.604Z,28.20
2019-01-18T10:02:14.190Z,28.20
2019-01-18T10:04:41.869Z,28.20
2019-01-18T10:07:09.559Z,28.20
2019-01-18T10:09:37.225Z,28.10
2019-01-18T10:12:04.903Z,28.10
2019-01-18T10:14:32.580Z,28.20
2019-01-18T10:17:00.177Z,28.10
2019-01-18T10:19:27.856Z,28.20
2019-01-18T10:21:55.465Z,28.10
2019-01-18T10:24:23.072Z,28.20
2019-01-18T10:26:50.740Z,28.20
2019-01-18T10:29:18.427Z,28.20
2019-01-18T10:31:46.080Z,27.90
2019-01-18T10:34:13.735Z,28.00
2019-01-18T10:36:41.311Z,28.20
2019-01-18T10:39:09.731Z,28.20
2019-01-18T10:41:37.439Z,28.20
2019-01-18T10:44:06.136Z,28.20
2019-01-18T10:46:33.915Z,28.20
2019-01-18T10:49:01.592Z,28.20
2019-01-18T10:51:29.196Z,28.20
2019-01-18T10:53:56.833Z,28.20
2019-01-18T10:56:24.441Z,28.20
2019-01-18T10:58:52.065Z,28.20
2019-01-18T11:01:19.782Z,28.20
2019-01-18T11:03:47.373Z,28.20
2019-01-18T11:06:15.056Z,28.20
2019-01-18T11:08:42.711Z,28.20
2019-01-18T11:11:10.378Z,28.20
2019-01-18T11:13:37.971Z,28.20
2019-01-18T11:16:05.621Z,28.20
2019-01-18T11:18:33.263Z,28.20
2019-01-18T11:21:00.988Z,28.20
2019-01-18T11:23:28.579Z,28.20
2019-01-18T11:25:56.181Z,28.20
2019-01-18T11:28:23.824Z,28.20
2019-01-18T11:30:51.434Z,28.20
2019-01-18T11:33:19.095Z,28.20
2019-01-18T11:35:46.769Z,28.20
2019-01-18T11:38:14.459Z,28.20
2019-01-18T11:40:42.123Z,28.20
2019-01-18T11:43:09.768Z,28.20
2019-01-18T11:45:37.373Z,28.20
2019-01-18T11:48:04.979Z,28.20
2019-01-18T11:50:32.713Z,28.20
2019-01-18T11:53:00.402Z,28.20
2019-01-18T11:55:28.063Z,28.20
2019-01-18T11:57:55.657Z,28.20
2019-01-18T12:00:27.233Z,28.20
2019-01-18T12:02:54.919Z,28.20
2019-01-18T12:05:22.582Z,28.20
2019-01-18T12:07:50.173Z,28.20
2019-01-18T12:10:21.761Z,28.20
2019-01-18T12:12:49.363Z,28.20
2019-01-18T12:15:16.952Z,28.20
2019-01-18T12:17:44.603Z,28.20
2019-01-18T12:20:13.925Z,28.20
2019-01-18T12:22:41.647Z,28.20
2019-01-18T12:25:09.598Z,28.20
2019-01-18T12:27:37.277Z,28.10
2019-01-18T12:30:06.625Z,28.10
2019-01-18T12:32:34.309Z,28.10
2019-01-18T12:35:01.992Z,28.10
2019-01-18T12:37:29.822Z,28.10
2019-01-18T12:39:57.460Z,28.10
2019-01-18T12:42:25.075Z,28.10
2019-01-18T12:44:52.759Z,28.10
2019-01-18T12:47:20.441Z,28.10
2019-01-18T12:49:48.148Z,28.10
2019-01-18T12:52:15.794Z,28.10
2019-01-18T12:54:43.438Z,28.10
2019-01-18T12:57:11.013Z,28.10
2019-01-18T12:59:38.611Z,28.10
2019-01-18T13:02:06.254Z,28.00
2019-01-18T13:04:33.855Z,28.10
2019-01-18T13:07:01.502Z,28.10
2019-01-18T13:09:29.125Z,28.10
2019-01-18T13:11:56.745Z,28.10
2019-01-18T13:14:24.466Z,28.10
2019-01-18T13:16:52.223Z,28.10
2019-01-18T13:19:19.921Z,28.10
2019-01-18T13:21:47.520Z,28.10
2019-01-18T13:24:15.443Z,28.10
2019-01-18T13:26:43.128Z,28.10
2019-01-18T13:29:10.828Z,28.10
2019-01-18T13:31:38.433Z,28.00
2019-01-18T13:34:06.029Z,28.00
2019-01-18T13:36:33.710Z,28.00
2019-01-18T13:39:01.394Z,28.10
2019-01-18T13:41:29.136Z,28.10
2019-01-18T13:43:56.866Z,28.00
2019-01-18T13:46:24.620Z,28.10
2019-01-18T13:48:52.346Z,28.10
2019-01-18T13:51:20.001Z,28.10
2019-01-18T13:53:47.732Z,28.10
2019-01-18T13:56:15.340Z,28.10
2019-01-18T13:58:43.063Z,28.10
2019-01-18T14:01:10.803Z,28.10
2019-01-18T14:03:38.486Z,28.00
2019-01-18T14:06:06.100Z,28.00
2019-01-18T14:08:33.849Z,28.10
2019-01-18T14:11:01.540Z,28.10
2019-01-18T14:13:29.211Z,28.00
2019-01-18T14:15:56.935Z,27.90
2019-01-18T14:18:24.601Z,27.80
2019-01-18T14:20:52.294Z,27.80
2019-01-18T14:23:20.910Z,27.90
2019-01-18T14:25:48.531Z,27.60
2019-01-18T14:28:16.116Z,27.50
2019-01-18T14:30:43.815Z,27.50
2019-01-18T14:33:11.417Z,27.50
2019-01-18T14:35:39.024Z,27.40
2019-01-18T14:38:06.724Z,27.30
2019-01-18T14:40:34.388Z,27.40
2019-01-18T14:43:01.987Z,27.30
2019-01-18T14:45:31.281Z,27.20
2019-01-18T14:47:58.954Z,27.20
2019-01-18T14:50:26.546Z,27.20
2019-01-18T14:52:54.275Z,27.10
2019-01-18T14:55:22.026Z,27.20
2019-01-18T14:57:49.689Z,27.20
2019-01-18T15:00:18.581Z,27.10
2019-01-18T15:02:46.342Z,27.10
2019-01-18T15:05:14.032Z,27.10
2019-01-18T15:07:41.718Z,27.20
2019-01-18T15:10:11.003Z,27.10
2019-01-18T15:12:38.624Z,27.20
2019-01-18T15:15:07.858Z,27.10
2019-01-18T15:17:35.502Z,27.10
2019-01-18T15:20:04.682Z,27.10
2019-01-18T15:22:32.326Z,27.30
2019-01-18T15:24:59.932Z,27.20
2019-01-18T15:27:27.552Z,27.20
2019-01-18T15:29:55.290Z,27.10
2019-01-18T15:32:22.964Z,27.10
2019-01-18T15:34:50.644Z,27.10
2019-01-18T15:37:18.293Z,27.10
2019-01-18T15:39:45.970Z,27.10
2019-01-18T15:42:13.622Z,27.10
2019-01-18T15:44:41.262Z,27.10
2019-01-18T15:47:08.887Z,27.10
2019-01-18T15:49:36.528Z,27.10
2019-01-18T15:52:04.251Z,27.10
2019-01-18T15:54:32.056Z,27.10
2019-01-18T15:56:59.715Z,27.10
2019-01-18T15:59:27.468Z,27.10
2019-01-18T16:01:55.140Z,27.00
2019-01-18T16:04:22.816Z,27.10
2019-01-18T16:06:50.544Z,27.00
2019-01-18T16:09:18.148Z,26.90
2019-01-18T16:11:45.895Z,27.00
2019-01-18T16:14:13.540Z,26.90
2019-01-18T16:16:41.233Z,26.80
2019-01-18T16:19:08.916Z,26.90
2019-01-18T16:21:36.558Z,26.90
2019-01-18T16:24:04.336Z,26.90
2019-01-18T16:26:32.027Z,26.80
2019-01-18T16:28:59.718Z,26.80
2019-01-18T16:31:27.462Z,26.90
2019-01-18T16:33:55.144Z,26.80
2019-01-18T16:36:22.780Z,26.80
2019-01-18T16:38:50.512Z,26.90
2019-01-18T16:41:18.243Z,26.70
2019-01-18T16:43:45.867Z,26.60
2019-01-18T16:46:13.536Z,26.50
2019-01-18T16:48:41.254Z,26.60
2019-01-18T16:51:08.928Z,26.70
2019-01-18T16:53:36.642Z,26.70
2019-01-18T16:56:04.345Z,26.60
2019-01-18T16:58:32.024Z,26.80
2019-01-18T17:01:00.898Z,26.50
2019-01-18T17:03:30.666Z,26.70
2019-01-18T17:05:57.812Z,26.80
2019-01-18T17:08:25.474Z,26.70
2019-01-18T17:10:53.102Z,26.70
2019-01-18T17:13:20.684Z,27.10
2019-01-18T17:15:48.339Z,26.70
2019-01-18T17:18:15.982Z,26.60
2019-01-18T17:20:44.853Z,26.40
2019-01-18T17:23:12.450Z,26.50
2019-01-18T17:25:40.104Z,26.60
2019-01-18T17:28:07.766Z,26.40
2019-01-18T17:30:35.371Z,26.30
2019-01-18T17:33:03.047Z,26.30
2019-01-18T17:35:44.442Z,26.10
2019-01-18T17:38:19.766Z,26.20
2019-01-18T17:41:05.538Z,26.00
2019-01-18T17:43:34.807Z,25.80
2019-01-18T17:46:04.094Z,25.90
2019-01-18T17:48:33.427Z,25.90
2019-01-18T17:51:17.711Z,25.80
2019-01-18T17:54:03.189Z,25.80
2019-01-18T17:56:32.552Z,25.90
2019-01-18T17:59:13.898Z,25.80
2019-01-18T18:01:43.348Z,25.80
2019-01-18T18:04:12.726Z,26.10
2019-01-18T18:06:57.207Z,25.80
2019-01-18T18:09:35.245Z,25.90
2019-01-18T18:12:04.539Z,25.90
2019-01-18T18:14:45.879Z,25.70
2019-01-18T18:17:26.892Z,26.20
2019-01-18T18:20:12.769Z,25.20
2019-01-18T18:22:47.971Z,25.50
2019-01-18T18:25:20.293Z,25.50
2019-01-18T18:27:55.624Z,25.50
2019-01-18T18:30:24.926Z,25.30
2019-01-18T18:32:59.869Z,25.70
2019-01-18T18:35:37.878Z,26.00
2019-01-18T18:38:19.183Z,26.10
2019-01-18T18:40:54.647Z,26.30
2019-01-18T18:43:23.908Z,26.40
2019-01-18T18:45:59.216Z,26.60
2019-01-18T18:48:31.489Z,26.60
2019-01-18T18:51:00.851Z,26.50
2019-01-18T18:53:32.818Z,26.50
2019-01-18T18:56:15.904Z,26.40
2019-01-18T18:58:45.185Z,26.50
2019-01-18T19:01:20.327Z,26.60
2019-01-18T19:03:49.539Z,26.60
2019-01-18T19:06:27.881Z,26.60
2019-01-18T19:09:13.720Z,27.00
2019-01-18T19:11:48.951Z,26.70
2019-01-18T19:14:24.027Z,26.70
2019-01-18T19:16:59.028Z,26.80
2019-01-18T19:19:44.661Z,26.80
2019-01-18T19:22:13.990Z,26.80
2019-01-18T19:24:45.959Z,26.80
2019-01-18T19:27:15.345Z,26.90
2019-01-18T19:29:44.627Z,27.50
2019-01-18T19:32:16.803Z,27.20
2019-01-18T19:34:55.420Z,27.10
2019-01-18T19:37:27.635Z,27.20
2019-01-18T19:39:56.938Z,27.20
2019-01-18T19:42:31.913Z,27.30
2019-01-18T19:45:01.197Z,27.40
2019-01-18T19:47:30.639Z,27.50
2019-01-18T19:49:59.941Z,27.50
2019-01-18T19:52:45.750Z,27.70
2019-01-18T19:55:33.221Z,27.70
2019-01-18T19:58:08.423Z,28.10
2019-01-18T20:00:46.498Z,28.10
2019-01-18T20:03:27.985Z,28.10
2019-01-18T20:05:57.285Z,28.10
2019-01-18T20:08:38.310Z,28.10
2019-01-18T20:11:13.573Z,28.20
2019-01-18T20:13:42.924Z,28.10
2019-01-18T20:16:12.259Z,28.10
2019-01-18T20:18:47.395Z,28.20
2019-01-18T20:21:25.657Z,28.20
2019-01-18T20:24:04.062Z,28.20
2019-01-18T20:26:39.330Z,28.20
2019-01-18T20:29:08.584Z,28.20
2019-01-18T20:31:49.864Z,28.50
2019-01-18T20:34:22.213Z,28.20
2019-01-18T20:36:54.448Z,28.20
2019-01-18T20:39:23.801Z,28.20
2019-01-18T20:41:53.022Z,28.20
2019-01-18T20:44:22.229Z,28.20
2019-01-18T20:47:09.621Z,28.20
2019-01-18T20:49:55.068Z,28.20
2019-01-18T20:52:30.220Z,28.20
2019-01-18T20:54:59.432Z,28.10
2019-01-18T20:57:34.689Z,28.20
2019-01-18T21:00:20.286Z,28.20
2019-01-18T21:02:58.590Z,28.20
2019-01-18T21:05:27.868Z,28.20
2019-01-18T21:07:57.162Z,28.20
2019-01-18T21:10:29.368Z,28.20
2019-01-18T21:12:58.657Z,28.20
2019-01-18T21:15:27.954Z,28.20
2019-01-18T21:17:57.186Z,28.20
2019-01-18T21:20:26.556Z,28.20
2019-01-18T21:23:04.510Z,28.20
2019-01-18T21:25:33.781Z,28.20
2019-01-18T21:28:09.050Z,28.20
2019-01-18T21:30:38.324Z,28.20
2019-01-18T21:33:16.586Z,28.80
2019-01-18T21:36:00.788Z,28.30
2019-01-18T21:38:44.676Z,28.20
2019-01-18T21:41:13.976Z,28.20
2019-01-18T21:43:59.650Z,28.40
2019-01-18T21:46:31.605Z,28.20
2019-01-18T21:49:15.970Z,28.20
2019-01-18T21:51:45.652Z,28.60
2019-01-18T21:54:29.874Z,28.70
2019-01-18T21:57:15.714Z,28.30
2019-01-18T21:59:48.082Z,28.50
2019-01-18T22:02:33.582Z,28.70
2019-01-18T22:05:02.882Z,28.60
2019-01-18T22:07:41.175Z,28.60
2019-01-18T22:10:16.546Z,28.70
2019-01-18T22:12:51.728Z,28.50
2019-01-18T22:15:23.774Z,28.50
2019-01-18T22:17:55.748Z,28.70
2019-01-18T22:20:25.048Z,28.60
2019-01-18T22:22:57.286Z,28.70
2019-01-18T22:25:44.408Z,28.60
2019-01-18T22:28:19.609Z,28.80
2019-01-18T22:30:48.913Z,28.80
2019-01-18T22:33:21.223Z,29.30
2019-01-18T22:35:50.478Z,28.80
2019-01-18T22:38:34.524Z,28.90
2019-01-18T22:41:20.410Z,28.90
2019-01-18T22:43:49.686Z,28.90
2019-01-18T22:46:36.949Z,28.80
2019-01-18T22:49:06.215Z,28.90
2019-01-18T22:51:38.450Z,28.90
2019-01-18T22:54:13.423Z,29.30
2019-01-18T22:57:02.154Z,28.70
2019-01-18T22:59:31.498Z,28.60
2019-01-18T23:02:19.451Z,28.60
2019-01-18T23:04:55.734Z,28.70
2019-01-18T23:07:31.295Z,28.70
2019-01-18T23:10:06.239Z,28.70
2019-01-18T23:12:35.496Z,28.60
2019-01-18T23:15:10.831Z,28.60
2019-01-18T23:17:46.201Z,28.60
2019-01-18T23:20:31.723Z,28.60
2019-01-18T23:23:01.013Z,28.60
2019-01-18T23:25:30.230Z,28.50
2019-01-18T23:28:11.665Z,28.60
2019-01-18T23:30:44.001Z,28.60
2019-01-18T23:33:13.250Z,28.40
2019-01-18T23:35:51.616Z,28.50
2019-01-18T23:38:35.668Z,28.10
2019-01-18T23:41:21.551Z,28.10
2019-01-18T23:44:02.848Z,28.10
2019-01-18T23:46:35.560Z,28.10
2019-01-18T23:49:05.158Z,28.10
2019-01-18T23:51:37.442Z,28.10
2019-01-18T23:54:06.691Z,28.10
2019-01-18T23:56:35.924Z,28.10
2019-01-18T23:59:07.984Z,28.10
